sensor_id;sensor_type;location;lat;lon;timestamp;P1;durP1;ratioP1;P2;durP2;ratioP2
70715;SDS011;59053;50.832;12.882;2023-04-15T00:01:00;7.77;;;3.37;;
70715;SDS011;59053;50.832;12.882;2023-04-15T00:03:25;9.67;;;3.50;;
70715;SDS011;59053;50.832;12.882;2023-04-15T00:05:51;7.90;;;3.05;;
70715;SDS011;59053;50.832;12.882;2023-04-15T00:08:16;10.07;;;3.70;;
70715;SDS011;59053;50.832;12.882;2023-04-15T00:10:42;12.98;;;4.55;;
70715;SDS011;59053;50.832;12.882;2023-04-15T00:13:11;9.00;;;3.90;;
70715;SDS011;59053;50.832;12.882;2023-04-15T00:15:36;10.43;;;4.55;;
70715;SDS011;59053;50.832;12.882;2023-04-15T00:18:02;9.90;;;3.70;;
70715;SDS011;59053;50.832;12.882;2023-04-15T00:20:28;12.00;;;4.50;;
70715;SDS011;59053;50.832;12.882;2023-04-15T00:22:54;10.65;;;4.45;;
70715;SDS011;59053;50.832;12.882;2023-04-15T00:25:19;12.13;;;5.03;;
70715;SDS011;59053;50.832;12.882;2023-04-15T00:27:44;9.90;;;3.83;;
70715;SDS011;59053;50.832;12.882;2023-04-15T00:30:10;10.47;;;3.87;;
70715;SDS011;59053;50.832;12.882;2023-04-15T00:32:35;9.02;;;3.83;;
70715;SDS011;59053;50.832;12.882;2023-04-15T00:42:38;9.23;;;3.67;;
70715;SDS011;59053;50.832;12.882;2023-04-15T00:45:04;10.13;;;3.90;;
70715;SDS011;59053;50.832;12.882;2023-04-15T00:47:31;10.13;;;4.07;;
70715;SDS011;59053;50.832;12.882;2023-04-15T00:49:57;9.57;;;3.78;;
70715;SDS011;59053;50.832;12.882;2023-04-15T00:52:23;10.47;;;4.00;;
70715;SDS011;59053;50.832;12.882;2023-04-15T00:54:49;10.57;;;4.30;;
70715;SDS011;59053;50.832;12.882;2023-04-15T00:57:16;9.13;;;3.97;;
70715;SDS011;59053;50.832;12.882;2023-04-15T00:59:42;8.27;;;3.45;;
70715;SDS011;59053;50.832;12.882;2023-04-15T01:02:07;8.00;;;3.47;;
70715;SDS011;59053;50.832;12.882;2023-04-15T01:04:32;8.57;;;3.80;;
70715;SDS011;59053;50.832;12.882;2023-04-15T01:06:58;5.97;;;2.53;;
70715;SDS011;59053;50.832;12.882;2023-04-15T01:09:23;8.07;;;3.03;;
70715;SDS011;59053;50.832;12.882;2023-04-15T01:11:49;6.80;;;2.80;;
70715;SDS011;59053;50.832;12.882;2023-04-15T01:14:15;8.60;;;2.88;;
70715;SDS011;59053;50.832;12.882;2023-04-15T01:16:40;7.70;;;3.23;;
70715;SDS011;59053;50.832;12.882;2023-04-15T01:19:07;7.88;;;3.22;;
70715;SDS011;59053;50.832;12.882;2023-04-15T01:21:35;6.68;;;2.90;;
70715;SDS011;59053;50.832;12.882;2023-04-15T01:24:04;6.10;;;2.70;;
70715;SDS011;59053;50.832;12.882;2023-04-15T01:26:33;6.18;;;2.70;;
70715;SDS011;59053;50.832;12.882;2023-04-15T01:29:00;5.75;;;2.47;;
70715;SDS011;59053;50.832;12.882;2023-04-15T01:34:54;6.35;;;2.65;;
70715;SDS011;59053;50.832;12.882;2023-04-15T01:37:22;6.03;;;2.45;;
70715;SDS011;59053;50.832;12.882;2023-04-15T01:39:49;5.32;;;2.03;;
70715;SDS011;59053;50.832;12.882;2023-04-15T01:42:15;6.72;;;2.53;;
70715;SDS011;59053;50.832;12.882;2023-04-15T01:44:41;6.07;;;2.67;;
70715;SDS011;59053;50.832;12.882;2023-04-15T01:47:09;5.80;;;2.30;;
70715;SDS011;59053;50.832;12.882;2023-04-15T01:49:35;6.23;;;2.63;;
70715;SDS011;59053;50.832;12.882;2023-04-15T01:52:00;7.20;;;2.70;;
70715;SDS011;59053;50.832;12.882;2023-04-15T01:54:25;6.53;;;2.27;;
70715;SDS011;59053;50.832;12.882;2023-04-15T01:56:51;6.53;;;2.70;;
70715;SDS011;59053;50.832;12.882;2023-04-15T01:59:17;5.95;;;2.60;;
70715;SDS011;59053;50.832;12.882;2023-04-15T02:01:43;7.07;;;2.70;;
70715;SDS011;59053;50.832;12.882;2023-04-15T02:04:09;6.43;;;2.80;;
70715;SDS011;59053;50.832;12.882;2023-04-15T02:06:43;5.90;;;2.42;;
70715;SDS011;59053;50.832;12.882;2023-04-15T02:09:09;8.37;;;2.80;;
70715;SDS011;59053;50.832;12.882;2023-04-15T02:11:34;7.20;;;2.97;;
70715;SDS011;59053;50.832;12.882;2023-04-15T02:14:02;7.53;;;3.20;;
70715;SDS011;59053;50.832;12.882;2023-04-15T02:16:31;7.20;;;2.93;;
70715;SDS011;59053;50.832;12.882;2023-04-15T02:18:57;7.55;;;3.10;;
70715;SDS011;59053;50.832;12.882;2023-04-15T02:21:22;8.23;;;3.40;;
70715;SDS011;59053;50.832;12.882;2023-04-15T02:23:47;7.68;;;3.50;;
70715;SDS011;59053;50.832;12.882;2023-04-15T02:26:13;7.30;;;2.90;;
70715;SDS011;59053;50.832;12.882;2023-04-15T02:28:38;7.40;;;3.13;;
70715;SDS011;59053;50.832;12.882;2023-04-15T02:31:07;8.77;;;3.33;;
70715;SDS011;59053;50.832;12.882;2023-04-15T02:33:33;7.95;;;3.33;;
70715;SDS011;59053;50.832;12.882;2023-04-15T02:35:59;8.07;;;3.47;;
70715;SDS011;59053;50.832;12.882;2023-04-15T02:38:26;11.32;;;4.95;;
70715;SDS011;59053;50.832;12.882;2023-04-15T02:40:51;9.77;;;4.27;;
70715;SDS011;59053;50.832;12.882;2023-04-15T02:43:16;8.93;;;3.60;;
70715;SDS011;59053;50.832;12.882;2023-04-15T02:45:42;10.75;;;4.50;;
70715;SDS011;59053;50.832;12.882;2023-04-15T02:48:09;12.13;;;4.85;;
70715;SDS011;59053;50.832;12.882;2023-04-15T02:50:34;11.10;;;4.53;;
70715;SDS011;59053;50.832;12.882;2023-04-15T02:53:01;11.57;;;4.93;;
70715;SDS011;59053;50.832;12.882;2023-04-15T02:55:28;12.02;;;4.97;;
70715;SDS011;59053;50.832;12.882;2023-04-15T02:57:53;11.60;;;4.80;;
70715;SDS011;59053;50.832;12.882;2023-04-15T03:00:18;11.30;;;4.83;;
70715;SDS011;59053;50.832;12.882;2023-04-15T03:02:46;13.30;;;5.22;;
70715;SDS011;59053;50.832;12.882;2023-04-15T03:05:12;11.17;;;4.80;;
70715;SDS011;59053;50.832;12.882;2023-04-15T03:07:42;10.20;;;4.47;;
70715;SDS011;59053;50.832;12.882;2023-04-15T03:10:07;10.80;;;4.90;;
70715;SDS011;59053;50.832;12.882;2023-04-15T03:12:33;10.18;;;4.88;;
70715;SDS011;59053;50.832;12.882;2023-04-15T03:14:58;11.23;;;4.80;;
70715;SDS011;59053;50.832;12.882;2023-04-15T03:17:32;11.65;;;4.68;;
70715;SDS011;59053;50.832;12.882;2023-04-15T03:19:58;11.90;;;4.88;;
70715;SDS011;59053;50.832;12.882;2023-04-15T03:22:23;8.67;;;3.70;;
70715;SDS011;59053;50.832;12.882;2023-04-15T03:24:50;12.07;;;5.10;;
70715;SDS011;59053;50.832;12.882;2023-04-15T03:27:16;11.67;;;4.67;;
70715;SDS011;59053;50.832;12.882;2023-04-15T03:29:41;10.20;;;4.13;;
70715;SDS011;59053;50.832;12.882;2023-04-15T03:32:06;9.93;;;4.27;;
70715;SDS011;59053;50.832;12.882;2023-04-15T03:34:33;10.13;;;4.13;;
70715;SDS011;59053;50.832;12.882;2023-04-15T03:36:58;7.70;;;3.20;;
70715;SDS011;59053;50.832;12.882;2023-04-15T03:39:23;9.40;;;3.92;;
70715;SDS011;59053;50.832;12.882;2023-04-15T03:41:49;9.50;;;4.10;;
70715;SDS011;59053;50.832;12.882;2023-04-15T03:44:14;9.93;;;3.93;;
70715;SDS011;59053;50.832;12.882;2023-04-15T03:46:39;7.83;;;3.60;;
70715;SDS011;59053;50.832;12.882;2023-04-15T03:49:05;7.83;;;3.23;;
70715;SDS011;59053;50.832;12.882;2023-04-15T03:51:31;7.32;;;3.30;;
70715;SDS011;59053;50.832;12.882;2023-04-15T03:53:56;8.67;;;3.47;;
70715;SDS011;59053;50.832;12.882;2023-04-15T03:56:22;7.95;;;3.53;;
70715;SDS011;59053;50.832;12.882;2023-04-15T03:58:48;6.00;;;2.77;;
70715;SDS011;59053;50.832;12.882;2023-04-15T04:01:13;6.87;;;2.90;;
70715;SDS011;59053;50.832;12.882;2023-04-15T04:03:39;8.63;;;3.70;;
70715;SDS011;59053;50.832;12.882;2023-04-15T04:06:04;7.30;;;3.37;;
70715;SDS011;59053;50.832;12.882;2023-04-15T04:08:30;8.25;;;3.60;;
70715;SDS011;59053;50.832;12.882;2023-04-15T04:10:56;8.57;;;3.60;;
70715;SDS011;59053;50.832;12.882;2023-04-15T04:13:21;7.30;;;3.20;;
70715;SDS011;59053;50.832;12.882;2023-04-15T04:15:46;8.27;;;3.80;;
70715;SDS011;59053;50.832;12.882;2023-04-15T04:18:12;7.72;;;3.35;;
70715;SDS011;59053;50.832;12.882;2023-04-15T04:20:40;9.33;;;3.63;;
70715;SDS011;59053;50.832;12.882;2023-04-15T04:23:09;8.93;;;3.60;;
70715;SDS011;59053;50.832;12.882;2023-04-15T04:25:43;9.00;;;3.60;;
70715;SDS011;59053;50.832;12.882;2023-04-15T04:28:08;9.70;;;3.63;;
70715;SDS011;59053;50.832;12.882;2023-04-15T04:30:41;8.85;;;3.78;;
70715;SDS011;59053;50.832;12.882;2023-04-15T04:33:11;7.93;;;3.00;;
70715;SDS011;59053;50.832;12.882;2023-04-15T04:35:57;7.80;;;3.20;;
70715;SDS011;59053;50.832;12.882;2023-04-15T04:38:23;8.50;;;3.22;;
70715;SDS011;59053;50.832;12.882;2023-04-15T04:44:00;8.82;;;3.63;;
70715;SDS011;59053;50.832;12.882;2023-04-15T04:46:27;9.87;;;3.27;;
70715;SDS011;59053;50.832;12.882;2023-04-15T04:49:05;9.50;;;3.78;;
70715;SDS011;59053;50.832;12.882;2023-04-15T04:54:40;11.77;;;4.28;;
70715;SDS011;59053;50.832;12.882;2023-04-15T04:57:05;11.93;;;4.40;;
70715;SDS011;59053;50.832;12.882;2023-04-15T04:59:32;13.05;;;4.82;;
70715;SDS011;59053;50.832;12.882;2023-04-15T05:01:57;14.50;;;5.32;;
70715;SDS011;59053;50.832;12.882;2023-04-15T05:04:23;14.23;;;5.33;;
70715;SDS011;59053;50.832;12.882;2023-04-15T05:06:48;13.40;;;4.97;;
70715;SDS011;59053;50.832;12.882;2023-04-15T05:09:13;13.70;;;4.77;;
70715;SDS011;59053;50.832;12.882;2023-04-15T05:11:39;13.80;;;5.10;;
70715;SDS011;59053;50.832;12.882;2023-04-15T05:14:04;13.73;;;4.93;;
70715;SDS011;59053;50.832;12.882;2023-04-15T05:16:30;11.93;;;4.30;;
70715;SDS011;59053;50.832;12.882;2023-04-15T05:18:55;10.47;;;3.77;;
70715;SDS011;59053;50.832;12.882;2023-04-15T05:21:20;10.07;;;3.47;;
70715;SDS011;59053;50.832;12.882;2023-04-15T05:26:45;6.57;;;2.60;;
70715;SDS011;59053;50.832;12.882;2023-04-15T05:32:15;9.33;;;3.00;;
70715;SDS011;59053;50.832;12.882;2023-04-15T05:34:41;11.85;;;3.28;;
70715;SDS011;59053;50.832;12.882;2023-04-15T05:37:06;11.50;;;3.33;;
70715;SDS011;59053;50.832;12.882;2023-04-15T05:39:32;8.23;;;2.83;;
70715;SDS011;59053;50.832;12.882;2023-04-15T05:41:58;7.60;;;2.60;;
70715;SDS011;59053;50.832;12.882;2023-04-15T05:47:25;7.50;;;2.65;;
70715;SDS011;59053;50.832;12.882;2023-04-15T05:49:51;9.83;;;2.80;;
70715;SDS011;59053;50.832;12.882;2023-04-15T05:52:16;7.88;;;2.65;;
70715;SDS011;59053;50.832;12.882;2023-04-15T05:54:42;8.47;;;2.60;;
70715;SDS011;59053;50.832;12.882;2023-04-15T05:57:07;7.20;;;2.50;;
70715;SDS011;59053;50.832;12.882;2023-04-15T05:59:33;9.37;;;2.80;;
70715;SDS011;59053;50.832;12.882;2023-04-15T06:01:58;7.97;;;2.87;;
70715;SDS011;59053;50.832;12.882;2023-04-15T06:04:26;6.47;;;2.42;;
70715;SDS011;59053;50.832;12.882;2023-04-15T06:06:51;7.23;;;2.77;;
70715;SDS011;59053;50.832;12.882;2023-04-15T06:09:16;6.10;;;2.27;;
70715;SDS011;59053;50.832;12.882;2023-04-15T06:11:42;7.47;;;2.40;;
70715;SDS011;59053;50.832;12.882;2023-04-15T06:14:07;8.47;;;2.70;;
70715;SDS011;59053;50.832;12.882;2023-04-15T06:16:35;7.53;;;2.60;;
70715;SDS011;59053;50.832;12.882;2023-04-15T06:19:01;7.73;;;2.30;;
70715;SDS011;59053;50.832;12.882;2023-04-15T06:21:27;5.70;;;2.20;;
70715;SDS011;59053;50.832;12.882;2023-04-15T06:23:52;5.40;;;2.20;;
70715;SDS011;59053;50.832;12.882;2023-04-15T06:26:18;7.40;;;2.17;;
70715;SDS011;59053;50.832;12.882;2023-04-15T06:28:43;6.50;;;2.03;;
70715;SDS011;59053;50.832;12.882;2023-04-15T06:31:08;7.13;;;2.30;;
70715;SDS011;59053;50.832;12.882;2023-04-15T06:37:41;5.95;;;1.92;;
70715;SDS011;59053;50.832;12.882;2023-04-15T06:40:07;6.40;;;2.43;;
70715;SDS011;59053;50.832;12.882;2023-04-15T06:46:38;5.97;;;2.30;;
70715;SDS011;59053;50.832;12.882;2023-04-15T06:53:42;5.05;;;2.13;;
70715;SDS011;59053;50.832;12.882;2023-04-15T06:56:57;4.63;;;2.03;;
70715;SDS011;59053;50.832;12.882;2023-04-15T06:59:32;4.35;;;2.10;;
70715;SDS011;59053;50.832;12.882;2023-04-15T07:02:34;4.85;;;1.95;;
70715;SDS011;59053;50.832;12.882;2023-04-15T07:09:03;4.07;;;1.80;;
70715;SDS011;59053;50.832;12.882;2023-04-15T07:12:49;4.18;;;1.85;;
70715;SDS011;59053;50.832;12.882;2023-04-15T07:15:30;3.58;;;1.75;;
70715;SDS011;59053;50.832;12.882;2023-04-15T07:25:27;3.73;;;1.70;;
70715;SDS011;59053;50.832;12.882;2023-04-15T07:31:23;2.47;;;1.30;;
70715;SDS011;59053;50.832;12.882;2023-04-15T07:34:21;2.63;;;1.27;;
70715;SDS011;59053;50.832;12.882;2023-04-15T07:36:50;3.83;;;1.50;;
70715;SDS011;59053;50.832;12.882;2023-04-15T07:39:16;3.90;;;1.30;;
70715;SDS011;59053;50.832;12.882;2023-04-15T07:41:45;3.15;;;1.30;;
70715;SDS011;59053;50.832;12.882;2023-04-15T07:44:11;2.97;;;1.30;;
70715;SDS011;59053;50.832;12.882;2023-04-15T07:46:36;3.00;;;1.50;;
70715;SDS011;59053;50.832;12.882;2023-04-15T07:49:02;4.03;;;1.80;;
70715;SDS011;59053;50.832;12.882;2023-04-15T07:51:31;3.97;;;1.80;;
70715;SDS011;59053;50.832;12.882;2023-04-15T07:54:14;4.65;;;2.00;;
70715;SDS011;59053;50.832;12.882;2023-04-15T07:56:42;3.33;;;1.60;;
70715;SDS011;59053;50.832;12.882;2023-04-15T07:59:08;2.90;;;1.43;;
70715;SDS011;59053;50.832;12.882;2023-04-15T08:01:34;3.10;;;1.40;;
70715;SDS011;59053;50.832;12.882;2023-04-15T08:03:59;3.05;;;1.40;;
70715;SDS011;59053;50.832;12.882;2023-04-15T08:06:25;3.00;;;1.47;;
70715;SDS011;59053;50.832;12.882;2023-04-15T08:08:51;2.42;;;1.25;;
70715;SDS011;59053;50.832;12.882;2023-04-15T08:11:18;3.17;;;1.53;;
70715;SDS011;59053;50.832;12.882;2023-04-15T08:13:43;2.78;;;1.40;;
70715;SDS011;59053;50.832;12.882;2023-04-15T08:16:13;2.20;;;1.30;;
70715;SDS011;59053;50.832;12.882;2023-04-15T08:18:41;2.30;;;1.30;;
70715;SDS011;59053;50.832;12.882;2023-04-15T08:21:19;4.17;;;1.80;;
70715;SDS011;59053;50.832;12.882;2023-04-15T08:23:44;4.20;;;2.00;;
70715;SDS011;59053;50.832;12.882;2023-04-15T08:26:11;3.03;;;1.53;;
70715;SDS011;59053;50.832;12.882;2023-04-15T08:28:37;2.65;;;1.40;;
70715;SDS011;59053;50.832;12.882;2023-04-15T08:31:03;1.75;;;1.20;;
70715;SDS011;59053;50.832;12.882;2023-04-15T08:33:28;3.50;;;1.50;;
70715;SDS011;59053;50.832;12.882;2023-04-15T08:35:54;2.57;;;1.30;;
70715;SDS011;59053;50.832;12.882;2023-04-15T08:38:19;2.43;;;1.30;;
70715;SDS011;59053;50.832;12.882;2023-04-15T08:40:45;2.83;;;1.30;;
70715;SDS011;59053;50.832;12.882;2023-04-15T08:43:32;2.65;;;1.52;;
70715;SDS011;59053;50.832;12.882;2023-04-15T08:45:58;2.05;;;1.30;;
70715;SDS011;59053;50.832;12.882;2023-04-15T08:48:26;2.78;;;1.15;;
70715;SDS011;59053;50.832;12.882;2023-04-15T08:50:53;2.10;;;1.27;;
70715;SDS011;59053;50.832;12.882;2023-04-15T08:53:18;2.45;;;1.30;;
70715;SDS011;59053;50.832;12.882;2023-04-15T08:55:45;2.50;;;1.30;;
70715;SDS011;59053;50.832;12.882;2023-04-15T08:58:14;2.17;;;1.27;;
70715;SDS011;59053;50.832;12.882;2023-04-15T09:00:40;3.00;;;1.45;;
70715;SDS011;59053;50.832;12.882;2023-04-15T09:03:06;2.50;;;1.40;;
70715;SDS011;59053;50.832;12.882;2023-04-15T09:05:32;2.72;;;1.50;;
70715;SDS011;59053;50.832;12.882;2023-04-15T09:08:00;4.95;;;1.70;;
70715;SDS011;59053;50.832;12.882;2023-04-15T09:14:23;3.33;;;1.50;;
70715;SDS011;59053;50.832;12.882;2023-04-15T09:16:55;3.05;;;1.60;;
70715;SDS011;59053;50.832;12.882;2023-04-15T09:19:30;3.30;;;1.80;;
70715;SDS011;59053;50.832;12.882;2023-04-15T09:22:03;3.92;;;1.90;;
70715;SDS011;59053;50.832;12.882;2023-04-15T09:24:36;3.83;;;1.90;;
70715;SDS011;59053;50.832;12.882;2023-04-15T09:27:06;4.35;;;2.05;;
70715;SDS011;59053;50.832;12.882;2023-04-15T09:29:40;4.17;;;2.10;;
70715;SDS011;59053;50.832;12.882;2023-04-15T09:32:18;4.57;;;1.90;;
70715;SDS011;59053;50.832;12.882;2023-04-15T09:41:18;4.70;;;2.00;;
70715;SDS011;59053;50.832;12.882;2023-04-15T09:43:46;3.47;;;1.98;;
70715;SDS011;59053;50.832;12.882;2023-04-15T09:46:13;3.37;;;1.80;;
70715;SDS011;59053;50.832;12.882;2023-04-15T09:48:38;3.67;;;1.92;;
70715;SDS011;59053;50.832;12.882;2023-04-15T09:51:04;3.73;;;2.07;;
70715;SDS011;59053;50.832;12.882;2023-04-15T09:53:42;5.43;;;2.65;;
70715;SDS011;59053;50.832;12.882;2023-04-15T09:56:08;3.53;;;1.92;;
70715;SDS011;59053;50.832;12.882;2023-04-15T09:58:34;4.28;;;2.10;;
70715;SDS011;59053;50.832;12.882;2023-04-15T10:01:03;4.35;;;2.33;;
70715;SDS011;59053;50.832;12.882;2023-04-15T10:14:34;4.50;;;2.45;;
70715;SDS011;59053;50.832;12.882;2023-04-15T10:17:03;4.28;;;2.17;;
70715;SDS011;59053;50.832;12.882;2023-04-15T10:19:33;4.17;;;1.80;;
70715;SDS011;59053;50.832;12.882;2023-04-15T10:25:29;6.00;;;2.20;;
70715;SDS011;59053;50.832;12.882;2023-04-15T10:28:33;3.90;;;2.00;;
70715;SDS011;59053;50.832;12.882;2023-04-15T10:30:59;4.40;;;2.30;;
70715;SDS011;59053;50.832;12.882;2023-04-15T10:33:30;4.30;;;2.20;;
70715;SDS011;59053;50.832;12.882;2023-04-15T10:35:58;4.80;;;2.20;;
70715;SDS011;59053;50.832;12.882;2023-04-15T10:41:43;5.20;;;2.37;;
70715;SDS011;59053;50.832;12.882;2023-04-15T10:44:12;4.05;;;2.20;;
70715;SDS011;59053;50.832;12.882;2023-04-15T10:46:43;5.13;;;2.67;;
70715;SDS011;59053;50.832;12.882;2023-04-15T10:51:41;5.93;;;2.50;;
70715;SDS011;59053;50.832;12.882;2023-04-15T10:54:13;5.45;;;2.38;;
70715;SDS011;59053;50.832;12.882;2023-04-15T11:12:35;7.03;;;3.05;;
70715;SDS011;59053;50.832;12.882;2023-04-15T11:15:36;6.60;;;3.00;;
70715;SDS011;59053;50.832;12.882;2023-04-15T11:18:20;8.23;;;3.22;;
70715;SDS011;59053;50.832;12.882;2023-04-15T11:23:43;8.00;;;3.50;;
70715;SDS011;59053;50.832;12.882;2023-04-15T11:26:11;7.25;;;3.30;;
70715;SDS011;59053;50.832;12.882;2023-04-15T11:28:50;8.40;;;3.53;;
70715;SDS011;59053;50.832;12.882;2023-04-15T11:31:23;7.80;;;3.40;;
70715;SDS011;59053;50.832;12.882;2023-04-15T11:34:01;7.68;;;3.70;;
70715;SDS011;59053;50.832;12.882;2023-04-15T11:36:39;7.07;;;3.10;;
70715;SDS011;59053;50.832;12.882;2023-04-15T11:39:32;6.93;;;3.38;;
70715;SDS011;59053;50.832;12.882;2023-04-15T11:42:15;5.73;;;2.97;;
70715;SDS011;59053;50.832;12.882;2023-04-15T11:44:46;6.22;;;2.90;;
70715;SDS011;59053;50.832;12.882;2023-04-15T11:47:26;7.47;;;3.17;;
70715;SDS011;59053;50.832;12.882;2023-04-15T11:49:58;6.70;;;3.15;;
70715;SDS011;59053;50.832;12.882;2023-04-15T11:52:57;6.28;;;2.92;;
70715;SDS011;59053;50.832;12.882;2023-04-15T11:55:25;6.53;;;2.93;;
70715;SDS011;59053;50.832;12.882;2023-04-15T12:01:18;8.70;;;3.50;;
70715;SDS011;59053;50.832;12.882;2023-04-15T12:03:44;7.23;;;3.47;;
70715;SDS011;59053;50.832;12.882;2023-04-15T12:06:20;7.47;;;3.45;;
70715;SDS011;59053;50.832;12.882;2023-04-15T12:16:50;7.75;;;3.75;;
70715;SDS011;59053;50.832;12.882;2023-04-15T12:19:21;8.35;;;3.67;;
70715;SDS011;59053;50.832;12.882;2023-04-15T12:21:49;8.45;;;3.88;;
70715;SDS011;59053;50.832;12.882;2023-04-15T12:24:18;8.17;;;3.87;;
70715;SDS011;59053;50.832;12.882;2023-04-15T12:26:55;8.25;;;3.97;;
70715;SDS011;59053;50.832;12.882;2023-04-15T12:29:26;8.60;;;3.83;;
70715;SDS011;59053;50.832;12.882;2023-04-15T12:31:56;8.75;;;3.90;;
70715;SDS011;59053;50.832;12.882;2023-04-15T12:43:01;7.10;;;3.50;;
70715;SDS011;59053;50.832;12.882;2023-04-15T12:45:27;8.70;;;4.10;;
70715;SDS011;59053;50.832;12.882;2023-04-15T12:47:52;9.13;;;4.50;;
70715;SDS011;59053;50.832;12.882;2023-04-15T12:50:34;8.50;;;4.05;;
70715;SDS011;59053;50.832;12.882;2023-04-15T12:53:01;8.85;;;4.70;;
70715;SDS011;59053;50.832;12.882;2023-04-15T12:55:27;8.97;;;4.33;;
70715;SDS011;59053;50.832;12.882;2023-04-15T12:57:56;9.20;;;4.57;;
70715;SDS011;59053;50.832;12.882;2023-04-15T13:00:22;9.82;;;4.75;;
70715;SDS011;59053;50.832;12.882;2023-04-15T13:02:47;10.17;;;4.90;;
70715;SDS011;59053;50.832;12.882;2023-04-15T13:05:13;10.52;;;4.90;;
70715;SDS011;59053;50.832;12.882;2023-04-15T13:07:44;11.75;;;4.93;;
70715;SDS011;59053;50.832;12.882;2023-04-15T13:10:10;11.73;;;5.43;;
70715;SDS011;59053;50.832;12.882;2023-04-15T13:12:35;11.05;;;5.07;;
70715;SDS011;59053;50.832;12.882;2023-04-15T13:18:54;10.25;;;5.03;;
70715;SDS011;59053;50.832;12.882;2023-04-15T13:21:20;11.23;;;4.97;;
70715;SDS011;59053;50.832;12.882;2023-04-15T13:23:46;11.70;;;5.33;;
70715;SDS011;59053;50.832;12.882;2023-04-15T13:26:12;9.00;;;4.47;;
70715;SDS011;59053;50.832;12.882;2023-04-15T13:28:38;9.77;;;4.80;;
70715;SDS011;59053;50.832;12.882;2023-04-15T13:31:04;10.63;;;4.83;;
70715;SDS011;59053;50.832;12.882;2023-04-15T13:33:29;10.73;;;5.28;;
70715;SDS011;59053;50.832;12.882;2023-04-15T13:35:55;12.47;;;5.00;;
70715;SDS011;59053;50.832;12.882;2023-04-15T13:41:16;9.82;;;4.80;;
70715;SDS011;59053;50.832;12.882;2023-04-15T13:43:41;10.37;;;4.77;;
70715;SDS011;59053;50.832;12.882;2023-04-15T13:46:07;10.50;;;4.60;;
70715;SDS011;59053;50.832;12.882;2023-04-15T13:48:32;10.68;;;5.20;;
70715;SDS011;59053;50.832;12.882;2023-04-15T13:50:58;10.53;;;5.10;;
70715;SDS011;59053;50.832;12.882;2023-04-15T13:53:23;10.50;;;4.83;;
70715;SDS011;59053;50.832;12.882;2023-04-15T13:55:48;11.03;;;5.20;;
70715;SDS011;59053;50.832;12.882;2023-04-15T13:58:14;9.15;;;4.70;;
70715;SDS011;59053;50.832;12.882;2023-04-15T14:00:42;11.38;;;5.50;;
70715;SDS011;59053;50.832;12.882;2023-04-15T14:03:07;10.40;;;4.97;;
70715;SDS011;59053;50.832;12.882;2023-04-15T14:05:35;10.02;;;4.85;;
70715;SDS011;59053;50.832;12.882;2023-04-15T14:08:00;10.80;;;5.30;;
70715;SDS011;59053;50.832;12.882;2023-04-15T14:10:29;10.47;;;5.10;;
70715;SDS011;59053;50.832;12.882;2023-04-15T14:12:54;11.45;;;4.95;;
70715;SDS011;59053;50.832;12.882;2023-04-15T14:15:20;10.87;;;5.33;;
70715;SDS011;59053;50.832;12.882;2023-04-15T14:17:45;11.97;;;5.70;;
70715;SDS011;59053;50.832;12.882;2023-04-15T14:20:10;12.57;;;5.80;;
70715;SDS011;59053;50.832;12.882;2023-04-15T14:22:36;11.50;;;5.20;;
70715;SDS011;59053;50.832;12.882;2023-04-15T14:25:01;11.77;;;5.60;;
70715;SDS011;59053;50.832;12.882;2023-04-15T14:27:30;10.90;;;5.55;;
70715;SDS011;59053;50.832;12.882;2023-04-15T14:29:56;9.63;;;4.90;;
70715;SDS011;59053;50.832;12.882;2023-04-15T14:32:23;11.60;;;5.53;;
70715;SDS011;59053;50.832;12.882;2023-04-15T14:34:49;10.32;;;4.85;;
70715;SDS011;59053;50.832;12.882;2023-04-15T14:37:24;9.93;;;5.37;;
70715;SDS011;59053;50.832;12.882;2023-04-15T14:39:50;10.20;;;5.30;;
70715;SDS011;59053;50.832;12.882;2023-04-15T14:42:18;11.10;;;5.53;;
70715;SDS011;59053;50.832;12.882;2023-04-15T14:44:43;10.40;;;5.30;;
70715;SDS011;59053;50.832;12.882;2023-04-15T14:47:21;11.87;;;5.50;;
70715;SDS011;59053;50.832;12.882;2023-04-15T14:57:11;12.52;;;5.68;;
70715;SDS011;59053;50.832;12.882;2023-04-15T14:59:37;11.63;;;5.93;;
70715;SDS011;59053;50.832;12.882;2023-04-15T15:02:02;11.23;;;5.40;;
70715;SDS011;59053;50.832;12.882;2023-04-15T15:04:28;11.73;;;5.53;;
70715;SDS011;59053;50.832;12.882;2023-04-15T15:06:57;10.45;;;5.40;;
70715;SDS011;59053;50.832;12.882;2023-04-15T15:09:23;10.43;;;5.23;;
70715;SDS011;59053;50.832;12.882;2023-04-15T15:11:49;9.65;;;4.60;;
70715;SDS011;59053;50.832;12.882;2023-04-15T15:14:22;10.55;;;5.00;;
70715;SDS011;59053;50.832;12.882;2023-04-15T15:17:02;10.87;;;5.20;;
70715;SDS011;59053;50.832;12.882;2023-04-15T15:19:31;10.40;;;5.00;;
70715;SDS011;59053;50.832;12.882;2023-04-15T15:22:12;10.83;;;5.40;;
70715;SDS011;59053;50.832;12.882;2023-04-15T15:31:19;11.32;;;5.65;;
70715;SDS011;59053;50.832;12.882;2023-04-15T15:33:45;13.67;;;5.57;;
70715;SDS011;59053;50.832;12.882;2023-04-15T15:36:10;11.27;;;5.33;;
70715;SDS011;59053;50.832;12.882;2023-04-15T15:38:36;10.73;;;5.47;;
70715;SDS011;59053;50.832;12.882;2023-04-15T15:41:17;9.90;;;4.87;;
70715;SDS011;59053;50.832;12.882;2023-04-15T15:43:43;11.43;;;5.25;;
70715;SDS011;59053;50.832;12.882;2023-04-15T15:46:18;9.83;;;5.23;;
70715;SDS011;59053;50.832;12.882;2023-04-15T15:48:47;11.07;;;5.18;;
70715;SDS011;59053;50.832;12.882;2023-04-15T15:51:12;10.23;;;5.03;;
70715;SDS011;59053;50.832;12.882;2023-04-15T15:53:48;9.00;;;4.70;;
70715;SDS011;59053;50.832;12.882;2023-04-15T15:56:14;9.93;;;4.97;;
70715;SDS011;59053;50.832;12.882;2023-04-15T15:58:41;9.70;;;5.10;;
70715;SDS011;59053;50.832;12.882;2023-04-15T16:01:15;10.63;;;5.13;;
70715;SDS011;59053;50.832;12.882;2023-04-15T16:07:15;9.43;;;4.95;;
70715;SDS011;59053;50.832;12.882;2023-04-15T16:09:41;10.13;;;5.17;;
70715;SDS011;59053;50.832;12.882;2023-04-15T16:12:22;10.70;;;5.10;;
70715;SDS011;59053;50.832;12.882;2023-04-15T16:14:52;9.88;;;5.28;;
70715;SDS011;59053;50.832;12.882;2023-04-15T16:17:27;9.88;;;4.93;;
70715;SDS011;59053;50.832;12.882;2023-04-15T16:19:53;9.40;;;4.88;;
70715;SDS011;59053;50.832;12.882;2023-04-15T16:22:18;9.87;;;5.13;;
70715;SDS011;59053;50.832;12.882;2023-04-15T16:24:44;10.27;;;5.37;;
70715;SDS011;59053;50.832;12.882;2023-04-15T16:27:14;9.57;;;5.10;;
70715;SDS011;59053;50.832;12.882;2023-04-15T16:29:41;10.02;;;5.38;;
70715;SDS011;59053;50.832;12.882;2023-04-15T16:32:25;10.90;;;5.47;;
70715;SDS011;59053;50.832;12.882;2023-04-15T16:34:53;11.43;;;5.63;;
70715;SDS011;59053;50.832;12.882;2023-04-15T16:37:26;10.40;;;5.47;;
70715;SDS011;59053;50.832;12.882;2023-04-15T16:39:54;11.38;;;5.55;;
70715;SDS011;59053;50.832;12.882;2023-04-15T16:42:20;10.50;;;5.20;;
70715;SDS011;59053;50.832;12.882;2023-04-15T16:44:46;9.55;;;5.15;;
70715;SDS011;59053;50.832;12.882;2023-04-15T16:47:11;10.57;;;5.53;;
70715;SDS011;59053;50.832;12.882;2023-04-15T16:49:38;9.40;;;5.20;;
70715;SDS011;59053;50.832;12.882;2023-04-15T16:52:03;10.27;;;5.30;;
70715;SDS011;59053;50.832;12.882;2023-04-15T16:54:29;9.80;;;5.00;;
70715;SDS011;59053;50.832;12.882;2023-04-15T16:56:55;9.07;;;4.85;;
70715;SDS011;59053;50.832;12.882;2023-04-15T16:59:24;10.10;;;5.13;;
70715;SDS011;59053;50.832;12.882;2023-04-15T17:01:56;9.85;;;4.90;;
70715;SDS011;59053;50.832;12.882;2023-04-15T17:04:22;11.10;;;5.25;;
70715;SDS011;59053;50.832;12.882;2023-04-15T17:06:56;10.77;;;5.33;;